East Lake, Minnesota
Current Conditions -  °F | °C
As of 6:41 AM on Tuesday 21 Oct 2014 (Local Time) from KHZX Reporting Station
Clear Clear  
Wind Chill: 30°   Ceiling: Unl
Heat Index: 30°   Visibility: 10mi
Dew Point: 30°   Wind: 3mph
Humidity: 100%   Direction: 90°E
Pressure: 30.18"   Gusts: NA
Location:  46.7232°N, 93.3159°W
Report Text: KHZX 211141Z AUTO 09003KT 10SM CLR M01/M01 A3018 RMK AO2
Loading
Personal Weather Stations






























Interactive Weather Map
Tropical Storm Tracking
New forecast layout! Learn more

10-Day Weather Forecast

Advertisements
Track Severe Weather on mobile